Time;durP1;ratioP1;P1;durP2;ratioP2;P2;SDS_P1;SDS_P2;PMS_P1;PMS_P2;Temp;Humidity;BMP_temperature;BMP_pressure;BME280_temperature;BME280_humidity;BME280_pressure;Samples;Min_cycle;Max_cycle;Signal;HPM_P1;HPM_P2
2022/01/05 00:01:34;;;;;;;6.90;1.37;;;2.60;99.90;;;;;;5043918;28;20187;-51
2022/01/05 00:04:02;;;;;;;7.53;1.30;;;2.60;99.90;;;;;;5043771;28;20317;-49
2022/01/05 00:06:29;;;;;;;5.10;1.30;;;2.60;99.90;;;;;;5034990;28;20215;-48
2022/01/05 00:08:55;;;;;;;4.90;1.20;;;2.60;99.90;;;;;;5049659;28;20199;-54
2022/01/05 00:11:23;;;;;;;4.57;1.30;;;2.60;99.90;;;;;;5043609;28;20210;-51
2022/01/05 00:13:49;;;;;;;3.83;1.17;;;2.60;99.90;;;;;;5045210;28;20289;-51
2022/01/05 00:16:16;;;;;;;5.00;1.20;;;2.60;99.90;;;;;;5054462;28;20199;-52
2022/01/05 00:18:43;;;;;;;4.43;0.97;;;2.60;99.90;;;;;;5050105;28;20202;-46
2022/01/05 00:21:11;;;;;;;4.60;1.43;;;2.60;99.90;;;;;;5040235;28;20199;-52
2022/01/05 00:23:38;;;;;;;4.93;1.70;;;2.60;99.90;;;;;;5042452;28;20293;-52
2022/01/05 00:26:05;;;;;;;3.67;1.27;;;2.60;99.90;;;;;;5049914;28;20202;-52
2022/01/05 00:28:32;;;;;;;7.07;1.50;;;2.50;99.90;;;;;;5044675;28;20278;-53
2022/01/05 00:30:59;;;;;;;6.20;1.40;;;2.50;99.90;;;;;;5051813;28;20220;-50
2022/01/05 00:33:25;;;;;;;4.10;1.40;;;2.50;99.90;;;;;;5040339;28;20232;-50
2022/01/05 00:35:52;;;;;;;5.17;1.10;;;2.50;99.90;;;;;;5054195;28;20195;-50
2022/01/05 00:38:20;;;;;;;8.07;1.60;;;2.50;99.90;;;;;;5034525;28;20699;-52
2022/01/05 00:40:46;;;;;;;4.33;1.50;;;2.50;99.90;;;;;;5054412;28;20199;-51
2022/01/05 00:43:13;;;;;;;3.07;1.07;;;2.50;99.90;;;;;;5038881;28;20738;-46
2022/01/05 00:45:40;;;;;;;7.50;1.20;;;2.50;99.90;;;;;;5046385;28;20286;-53
2022/01/05 00:48:07;;;;;;;6.23;1.10;;;2.40;99.90;;;;;;5042922;28;20192;-53
2022/01/05 00:50:34;;;;;;;5.53;1.27;;;2.40;99.90;;;;;;5040030;28;20313;-49
2022/01/05 00:53:01;;;;;;;4.80;1.00;;;2.40;99.90;;;;;;5030322;28;20234;-49
2022/01/05 00:55:29;;;;;;;6.10;1.40;;;2.40;99.90;;;;;;5045812;28;20201;-50
2022/01/05 00:57:56;;;;;;;6.17;1.47;;;2.40;99.90;;;;;;5045558;28;20257;-50
2022/01/05 01:00:22;;;;;;;3.03;0.80;;;2.40;99.90;;;;;;5041681;28;20188;-50
2022/01/05 01:02:49;;;;;;;5.30;1.20;;;2.40;99.90;;;;;;5044438;28;20222;-49
2022/01/05 01:05:16;;;;;;;6.30;1.00;;;2.40;99.90;;;;;;5039437;28;20281;-52
2022/01/05 01:07:44;;;;;;;6.13;1.17;;;2.40;99.90;;;;;;5044094;28;20202;-48
2022/01/05 01:10:11;;;;;;;2.23;0.97;;;2.40;99.90;;;;;;5043368;28;20269;-52
2022/01/05 01:12:39;;;;;;;5.27;1.23;;;2.30;99.90;;;;;;5050020;28;20207;-49
2022/01/05 01:15:09;;;;;;;7.10;1.13;;;2.30;99.90;;;;;;5050706;28;20552;-45
2022/01/05 01:17:36;;;;;;;3.93;1.50;;;2.30;99.90;;;;;;5045106;28;20824;-48
2022/01/05 01:20:04;;;;;;;7.30;1.37;;;2.30;99.90;;;;;;5048111;28;20202;-51
2022/01/05 01:22:32;;;;;;;4.57;1.13;;;2.30;99.90;;;;;;5031327;28;23979;-46
2022/01/05 01:24:59;;;;;;;5.60;1.17;;;2.30;99.90;;;;;;5058498;28;20300;-45
2022/01/05 01:27:25;;;;;;;5.43;1.00;;;2.30;99.90;;;;;;5043304;28;20191;-46
2022/01/05 01:29:54;;;;;;;4.27;1.27;;;2.30;99.90;;;;;;5060063;28;20306;-50
2022/01/05 01:32:20;;;;;;;3.83;1.20;;;2.30;99.90;;;;;;5043797;28;20206;-49
2022/01/05 01:34:47;;;;;;;8.30;1.60;;;2.30;99.90;;;;;;5060151;28;20198;-48
2022/01/05 01:37:15;;;;;;;8.20;1.17;;;2.30;99.90;;;;;;5041677;28;20242;-48
2022/01/05 01:39:42;;;;;;;6.60;1.40;;;2.30;99.90;;;;;;5044246;28;20230;-47
2022/01/05 01:42:09;;;;;;;5.33;1.50;;;2.30;99.90;;;;;;5046501;28;20199;-48
2022/01/05 01:44:36;;;;;;;8.53;1.50;;;2.20;99.90;;;;;;5053306;28;20190;-48
2022/01/05 01:47:05;;;;;;;6.07;1.60;;;2.20;99.90;;;;;;5046784;28;20203;-46
2022/01/05 01:49:31;;;;;;;6.40;1.73;;;2.20;99.90;;;;;;5050550;28;20687;-44
2022/01/05 01:51:58;;;;;;;8.17;2.10;;;2.20;99.90;;;;;;5048917;28;20222;-49
2022/01/05 01:54:26;;;;;;;13.57;2.00;;;2.20;99.90;;;;;;5039130;28;20257;-47
2022/01/05 01:56:54;;;;;;;8.10;1.43;;;2.20;99.90;;;;;;5057058;28;20283;-52
2022/01/05 01:59:22;;;;;;;3.10;1.37;;;2.20;99.90;;;;;;5047164;28;20796;-50
2022/01/05 02:01:48;;;;;;;7.73;1.60;;;2.20;99.90;;;;;;5051392;28;20530;-50
2022/01/05 02:04:16;;;;;;;5.70;1.60;;;2.20;99.90;;;;;;5051587;28;20215;-49
2022/01/05 02:06:43;;;;;;;7.37;1.57;;;2.30;99.90;;;;;;5044624;28;20203;-50
2022/01/05 02:09:10;;;;;;;5.33;1.50;;;2.30;99.90;;;;;;5042837;28;20789;-52
2022/01/05 02:11:39;;;;;;;6.13;1.27;;;2.30;99.90;;;;;;5038467;28;20268;-49
2022/01/05 02:14:07;;;;;;;5.73;1.43;;;2.30;99.90;;;;;;5055024;28;20222;-51
2022/01/05 02:16:35;;;;;;;4.00;1.40;;;2.30;99.90;;;;;;5042012;28;20206;-48
2022/01/05 02:19:02;;;;;;;8.87;1.87;;;2.30;99.90;;;;;;5056204;28;20191;-52
2022/01/05 02:21:32;;;;;;;5.93;1.97;;;2.30;99.90;;;;;;5056193;28;20194;-47
2022/01/05 02:23:59;;;;;;;9.90;1.50;;;2.30;99.90;;;;;;5049326;28;20310;-51
2022/01/05 02:26:26;;;;;;;7.57;2.00;;;2.40;99.90;;;;;;5038777;28;20207;-49
2022/01/05 02:28:53;;;;;;;7.17;2.70;;;2.40;99.90;;;;;;5054949;28;20197;-51
2022/01/05 02:31:20;;;;;;;5.30;1.60;;;2.40;99.90;;;;;;5043598;28;20253;-52
2022/01/05 02:33:47;;;;;;;3.50;1.23;;;2.40;99.90;;;;;;5057897;28;20215;-49
2022/01/05 02:36:18;;;;;;;5.67;1.23;;;2.40;99.90;;;;;;5044875;28;20199;-53
2022/01/05 02:38:47;;;;;;;13.70;2.03;;;2.40;99.90;;;;;;5056653;28;20229;-50
2022/01/05 02:41:14;;;;;;;3.97;1.40;;;2.40;99.90;;;;;;5031982;28;20604;-49
2022/01/05 02:43:43;;;;;;;4.70;1.23;;;2.30;99.90;;;;;;5057542;28;20254;-53
2022/01/05 02:46:12;;;;;;;7.03;1.47;;;2.40;99.90;;;;;;5055031;28;20237;-48
2022/01/05 02:48:40;;;;;;;6.17;1.50;;;2.30;99.90;;;;;;5049824;28;20199;-45
2022/01/05 02:51:07;;;;;;;6.57;1.33;;;2.30;99.90;;;;;;5045698;28;20219;-49
2022/01/05 02:53:35;;;;;;;8.27;1.50;;;2.40;99.90;;;;;;5051652;28;20207;-45
2022/01/05 02:56:04;;;;;;;2.43;0.70;;;2.30;99.90;;;;;;5054419;28;20213;-48
2022/01/05 02:58:30;;;;;;;4.67;1.17;;;2.40;99.90;;;;;;5031630;28;20192;-44
2022/01/05 03:00:58;;;;;;;6.73;1.87;;;2.30;99.90;;;;;;5054546;28;20679;-48
2022/01/05 03:03:24;;;;;;;6.00;1.03;;;2.40;99.90;;;;;;5043472;28;20896;-46
2022/01/05 03:05:51;;;;;;;3.90;1.23;;;2.40;99.90;;;;;;5048831;28;20198;-48
2022/01/05 03:08:18;;;;;;;7.37;1.83;;;2.40;99.90;;;;;;5055563;28;20214;-49
2022/01/05 03:10:44;;;;;;;8.87;1.17;;;2.40;99.90;;;;;;5058282;28;20562;-46
2022/01/05 03:13:13;;;;;;;6.63;1.73;;;2.40;99.90;;;;;;5036186;28;20703;-51
2022/01/05 03:15:40;;;;;;;7.23;0.90;;;2.40;99.90;;;;;;5056946;28;20199;-48
2022/01/05 03:18:08;;;;;;;8.50;1.60;;;2.40;99.90;;;;;;5045347;28;20209;-50
2022/01/05 03:20:35;;;;;;;7.17;1.57;;;2.40;99.90;;;;;;5045080;28;20192;-52
2022/01/05 03:23:03;;;;;;;6.23;1.20;;;2.40;99.90;;;;;;5050733;28;20214;-47
2022/01/05 03:25:31;;;;;;;7.20;1.33;;;2.40;99.90;;;;;;5055005;28;20966;-47
2022/01/05 03:27:57;;;;;;;8.17;1.40;;;2.40;99.90;;;;;;5041584;28;20305;-47
2022/01/05 03:30:28;;;;;;;7.43;1.13;;;2.40;99.90;;;;;;5045247;28;20200;-50
2022/01/05 03:33:09;;;;;;;5.97;1.10;;;2.50;99.90;;;;;;5058841;28;20578;-48
2022/01/05 03:35:39;;;;;;;5.40;1.60;;;2.50;99.90;;;;;;5043018;28;20249;-48
2022/01/05 03:38:06;;;;;;;6.30;0.93;;;2.50;99.90;;;;;;5043101;28;20207;-48
2022/01/05 03:40:34;;;;;;;6.03;1.23;;;2.50;99.90;;;;;;5042342;28;20195;-50
2022/01/05 03:43:01;;;;;;;7.00;1.67;;;2.50;99.90;;;;;;5042387;28;20592;-51
2022/01/05 03:45:30;;;;;;;6.23;1.40;;;2.50;99.90;;;;;;5039854;28;20208;-48
2022/01/05 03:47:57;;;;;;;2.03;0.80;;;2.50;99.90;;;;;;5050698;28;20282;-52
2022/01/05 03:50:24;;;;;;;3.83;0.90;;;2.50;99.90;;;;;;5038921;28;20213;-47
2022/01/05 03:52:50;;;;;;;4.77;0.90;;;2.50;99.90;;;;;;5047225;28;20691;-50
2022/01/05 03:55:17;;;;;;;6.60;1.30;;;2.50;99.90;;;;;;5054909;28;20304;-50
2022/01/05 03:57:44;;;;;;;4.80;1.23;;;2.50;99.90;;;;;;5053111;28;20206;-47
2022/01/05 04:00:12;;;;;;;4.17;0.93;;;2.50;99.90;;;;;;5044327;28;20686;-47
2022/01/05 04:02:42;;;;;;;6.37;1.77;;;2.50;99.90;;;;;;5048451;28;20211;-48
2022/01/05 04:05:10;;;;;;;2.53;1.23;;;2.50;99.90;;;;;;5040667;28;20282;-48
2022/01/05 04:07:37;;;;;;;6.57;1.13;;;2.50;99.90;;;;;;5040055;28;20881;-50
2022/01/05 04:10:05;;;;;;;6.27;1.13;;;2.60;99.90;;;;;;5048597;28;20199;-48
2022/01/05 04:12:31;;;;;;;4.67;1.30;;;2.50;99.90;;;;;;5051003;28;20873;-47
2022/01/05 04:14:58;;;;;;;7.40;0.73;;;2.60;99.90;;;;;;5036164;28;20207;-46
2022/01/05 04:17:25;;;;;;;5.80;0.80;;;2.60;99.90;;;;;;5046326;28;20202;-50
2022/01/05 04:19:53;;;;;;;4.13;1.10;;;2.60;99.90;;;;;;5055285;28;20219;-50
2022/01/05 04:22:20;;;;;;;5.20;2.37;;;2.60;99.90;;;;;;5043120;28;20207;-52
2022/01/05 04:24:47;;;;;;;7.67;1.57;;;2.70;99.90;;;;;;5044214;28;20205;-47
2022/01/05 04:27:15;;;;;;;4.33;1.20;;;2.70;99.90;;;;;;5047874;28;20195;-48
2022/01/05 04:29:42;;;;;;;7.43;1.10;;;2.80;99.90;;;;;;5033061;28;20326;-49
2022/01/05 04:32:09;;;;;;;7.93;1.30;;;2.80;99.90;;;;;;5050441;28;20215;-48
2022/01/05 04:34:37;;;;;;;7.53;1.10;;;2.80;99.90;;;;;;5037398;28;20195;-51
2022/01/05 04:37:05;;;;;;;7.13;1.33;;;2.80;99.90;;;;;;5041870;28;20202;-53
2022/01/05 04:39:32;;;;;;;6.13;1.37;;;2.90;99.90;;;;;;5038949;28;20311;-49
2022/01/05 04:42:00;;;;;;;10.00;1.63;;;2.90;99.90;;;;;;5042955;28;20597;-47
2022/01/05 04:44:27;;;;;;;7.53;1.20;;;3.00;99.90;;;;;;5029769;28;23717;-49
2022/01/05 04:46:54;;;;;;;5.07;1.50;;;3.00;99.90;;;;;;5048180;28;20206;-48
2022/01/05 04:49:21;;;;;;;4.27;1.87;;;3.00;99.90;;;;;;5047751;28;20202;-47
2022/01/05 04:51:48;;;;;;;7.07;2.33;;;3.00;99.90;;;;;;5048362;28;20238;-47
2022/01/05 04:54:16;;;;;;;4.80;1.30;;;3.10;99.90;;;;;;5051017;28;20238;-48
2022/01/05 04:56:43;;;;;;;10.03;1.67;;;3.00;99.90;;;;;;5063587;28;20187;-49
2022/01/05 04:59:10;;;;;;;4.83;1.10;;;3.10;99.90;;;;;;5054168;28;20599;-49
2022/01/05 05:01:37;;;;;;;4.50;1.13;;;3.00;99.90;;;;;;5040309;28;20675;-56
2022/01/05 05:04:04;;;;;;;5.73;1.30;;;3.10;99.90;;;;;;5059045;28;20607;-46
2022/01/05 05:06:31;;;;;;;7.10;1.57;;;3.10;99.90;;;;;;5044982;28;20910;-52
2022/01/05 05:08:58;;;;;;;10.27;1.67;;;3.10;99.90;;;;;;5043573;28;20206;-48
2022/01/05 05:11:27;;;;;;;5.43;1.20;;;3.10;99.90;;;;;;5055506;28;20725;-47
2022/01/05 05:13:53;;;;;;;7.27;1.87;;;3.10;99.90;;;;;;5046636;28;20586;-53
2022/01/05 05:16:20;;;;;;;5.50;1.13;;;3.10;99.90;;;;;;5043335;28;20202;-50
2022/01/05 05:18:47;;;;;;;9.47;1.47;;;3.10;99.90;;;;;;5053150;28;20213;-53
2022/01/05 05:21:14;;;;;;;4.47;1.53;;;3.20;99.90;;;;;;5056337;28;20202;-50
2022/01/05 05:23:41;;;;;;;4.90;1.47;;;3.20;99.90;;;;;;5052095;28;20227;-50
2022/01/05 05:26:07;;;;;;;8.90;2.03;;;3.20;99.90;;;;;;5046945;28;20923;-50
2022/01/05 05:28:35;;;;;;;12.40;2.00;;;3.20;99.90;;;;;;5048321;28;20194;-53
2022/01/05 05:31:02;;;;;;;8.27;1.63;;;3.20;99.90;;;;;;5036754;28;20216;-49
2022/01/05 05:33:29;;;;;;;8.53;1.80;;;3.20;99.90;;;;;;5054582;28;20211;-48
2022/01/05 05:35:56;;;;;;;6.10;1.07;;;3.20;99.90;;;;;;5052279;28;20203;-48
2022/01/05 05:38:23;;;;;;;9.03;1.20;;;3.20;99.90;;;;;;5047821;28;20207;-50
2022/01/05 05:40:50;;;;;;;6.93;1.23;;;3.20;99.90;;;;;;5044936;28;20210;-50
2022/01/05 05:43:17;;;;;;;8.03;2.00;;;3.20;99.90;;;;;;5044682;28;20299;-52
2022/01/05 05:45:45;;;;;;;12.70;2.00;;;3.20;99.90;;;;;;5043569;28;20209;-54
2022/01/05 05:48:11;;;;;;;5.93;1.60;;;3.20;99.90;;;;;;5047656;28;20199;-48
2022/01/05 05:50:38;;;;;;;13.87;2.20;;;3.30;99.90;;;;;;5053184;28;20202;-52
2022/01/05 05:53:06;;;;;;;5.27;1.30;;;3.20;99.90;;;;;;5041933;28;20237;-48
2022/01/05 05:55:33;;;;;;;8.83;1.90;;;3.20;99.90;;;;;;5050999;28;20864;-51
2022/01/05 05:58:00;;;;;;;9.70;1.20;;;3.20;99.90;;;;;;5045178;28;20206;-47
2022/01/05 06:00:26;;;;;;;7.10;2.00;;;3.10;99.90;;;;;;5049827;28;20203;-52
2022/01/05 06:02:55;;;;;;;8.70;2.47;;;3.10;99.90;;;;;;5044870;28;20695;-48
2022/01/05 06:05:22;;;;;;;5.87;2.40;;;3.10;99.90;;;;;;5045472;28;20207;-50
2022/01/05 06:07:48;;;;;;;6.97;1.60;;;3.10;99.90;;;;;;5058845;28;20202;-49
2022/01/05 06:10:15;;;;;;;9.93;2.20;;;3.00;99.90;;;;;;5041622;28;20691;-48
2022/01/05 06:12:42;;;;;;;10.80;1.93;;;2.90;99.90;;;;;;5055934;28;20361;-53
2022/01/05 06:15:10;;;;;;;9.47;1.17;;;2.90;99.90;;;;;;5043758;28;20202;-47
2022/01/05 06:17:37;;;;;;;9.37;2.30;;;2.90;99.90;;;;;;5034205;28;20207;-49
2022/01/05 06:20:07;;;;;;;9.43;2.10;;;2.80;99.90;;;;;;5052906;28;20206;-51
2022/01/05 06:22:34;;;;;;;9.97;2.30;;;2.70;99.90;;;;;;5050431;28;20298;-51
2022/01/05 06:25:01;;;;;;;7.77;2.73;;;2.70;99.90;;;;;;5042867;28;20207;-51
2022/01/05 06:27:28;;;;;;;10.70;2.20;;;2.70;99.90;;;;;;5038010;28;20211;-48
2022/01/05 06:29:55;;;;;;;9.70;2.43;;;2.70;99.90;;;;;;5053317;28;20207;-49
2022/01/05 06:32:21;;;;;;;14.20;2.13;;;2.70;99.90;;;;;;5039409;28;20206;-47
2022/01/05 06:34:48;;;;;;;5.43;1.67;;;2.70;99.90;;;;;;5048714;28;20214;-51
2022/01/05 06:37:17;;;;;;;5.93;1.87;;;2.80;99.90;;;;;;5045720;28;20199;-53
2022/01/05 06:39:44;;;;;;;7.30;1.47;;;2.80;99.90;;;;;;5047627;28;20222;-50
2022/01/05 06:42:11;;;;;;;12.67;3.07;;;2.80;99.90;;;;;;5047549;28;20210;-52
2022/01/05 06:44:38;;;;;;;8.50;1.80;;;2.80;99.90;;;;;;5049768;28;20331;-47
2022/01/05 06:47:05;;;;;;;14.43;2.40;;;2.80;99.90;;;;;;5044984;28;20205;-49
2022/01/05 06:49:32;;;;;;;21.33;4.30;;;2.80;99.90;;;;;;5025244;28;20218;-46
2022/01/05 06:51:59;;;;;;;13.13;2.60;;;2.80;99.90;;;;;;5052795;28;20893;-47
2022/01/05 06:54:27;;;;;;;22.33;4.80;;;2.80;99.90;;;;;;5050363;28;20232;-48
2022/01/05 06:56:54;;;;;;;16.07;2.57;;;2.90;99.90;;;;;;5049223;28;20210;-46
2022/01/05 06:59:20;;;;;;;9.20;1.47;;;2.90;99.90;;;;;;5059810;28;20248;-46
2022/01/05 07:01:47;;;;;;;11.77;2.93;;;2.90;99.90;;;;;;5044859;28;20206;-46
2022/01/05 07:04:14;;;;;;;5.80;1.47;;;2.90;99.90;;;;;;5034527;28;20226;-46
2022/01/05 07:06:41;;;;;;;9.37;1.97;;;3.00;99.90;;;;;;5045268;28;20197;-47
2022/01/05 07:09:08;;;;;;;10.63;2.40;;;3.00;99.90;;;;;;5046829;28;20227;-48
2022/01/05 07:11:37;;;;;;;9.37;2.67;;;3.00;99.90;;;;;;5038533;28;20968;-47
2022/01/05 07:14:05;;;;;;;3.43;1.43;;;3.10;99.90;;;;;;5042290;28;20269;-45
2022/01/05 07:16:32;;;;;;;4.80;1.20;;;3.10;99.90;;;;;;5037143;28;20287;-45
2022/01/05 07:18:59;;;;;;;9.43;1.90;;;3.10;99.90;;;;;;5044586;28;20307;-44
2022/01/05 07:21:26;;;;;;;16.87;2.90;;;3.10;99.90;;;;;;5040983;28;20249;-45
2022/01/05 07:23:52;;;;;;;14.13;2.80;;;3.10;99.90;;;;;;5041600;28;20242;-45
2022/01/05 07:26:19;;;;;;;19.33;3.93;;;3.10;99.90;;;;;;5045008;28;20210;-43
2022/01/05 07:28:47;;;;;;;12.93;2.90;;;3.20;99.90;;;;;;5043681;28;20207;-45
2022/01/05 07:31:13;;;;;;;8.50;2.20;;;3.20;99.90;;;;;;5052902;28;20976;-44
2022/01/05 07:33:40;;;;;;;18.30;4.77;;;3.20;99.90;;;;;;5037619;28;20230;-43
2022/01/05 07:36:07;;;;;;;12.00;2.03;;;3.20;99.90;;;;;;5038456;28;20206;-43
2022/01/05 07:38:34;;;;;;;7.60;2.57;;;3.20;99.90;;;;;;5049884;28;20206;-48
2022/01/05 07:41:01;;;;;;;9.40;2.00;;;3.20;99.90;;;;;;5037455;28;20210;-43
2022/01/05 07:43:28;;;;;;;7.20;1.90;;;3.20;99.90;;;;;;5046307;28;20215;-43
2022/01/05 07:45:56;;;;;;;7.43;1.70;;;3.20;99.90;;;;;;5042291;28;20656;-43
2022/01/05 07:48:23;;;;;;;14.37;3.40;;;3.20;99.90;;;;;;5041716;28;20204;-43
2022/01/05 07:50:50;;;;;;;11.80;2.10;;;3.20;99.90;;;;;;5040542;28;20218;-45
2022/01/05 07:53:17;;;;;;;20.77;3.70;;;3.30;99.90;;;;;;5055141;28;20222;-46
2022/01/05 07:55:43;;;;;;;6.23;1.47;;;3.30;99.90;;;;;;5040201;28;20214;-46
2022/01/05 07:58:10;;;;;;;12.17;2.77;;;3.40;99.90;;;;;;5044687;28;20207;-44
2022/01/05 08:00:38;;;;;;;9.90;2.17;;;3.40;99.90;;;;;;5040023;28;20214;-46
2022/01/05 08:03:06;;;;;;;19.20;3.67;;;3.40;99.90;;;;;;5053861;28;20887;-44
2022/01/05 08:05:33;;;;;;;11.10;2.80;;;3.50;99.90;;;;;;5041501;28;20580;-60
2022/01/05 08:08:00;;;;;;;11.83;3.43;;;3.50;99.90;;;;;;5038369;28;20191;-44
2022/01/05 08:10:27;;;;;;;18.00;4.47;;;3.50;99.90;;;;;;5049086;28;20203;-44
2022/01/05 08:12:54;;;;;;;12.90;2.70;;;3.50;99.90;;;;;;5045402;28;20234;-44
2022/01/05 08:15:20;;;;;;;8.73;2.07;;;3.50;99.90;;;;;;5048525;28;20202;-45
2022/01/05 08:17:47;;;;;;;14.03;2.60;;;3.50;99.90;;;;;;5047995;28;20202;-47
2022/01/05 08:20:16;;;;;;;14.47;3.33;;;3.50;99.90;;;;;;5035727;28;20209;-45
2022/01/05 08:22:44;;;;;;;6.63;2.57;;;3.50;99.90;;;;;;5042681;28;20218;-46
2022/01/05 08:25:13;;;;;;;17.43;3.13;;;3.50;99.90;;;;;;5052474;28;20191;-44
2022/01/05 08:27:45;;;;;;;8.70;2.00;;;3.50;99.90;;;;;;5045352;28;20202;-46
2022/01/05 08:30:14;;;;;;;10.53;2.90;;;3.50;99.90;;;;;;5038505;28;20207;-47
2022/01/05 08:32:41;;;;;;;17.30;5.00;;;3.40;99.90;;;;;;5043341;28;20636;-44
2022/01/05 08:35:08;;;;;;;8.23;2.50;;;3.40;99.90;;;;;;5042472;28;20203;-45
2022/01/05 08:37:37;;;;;;;8.50;2.73;;;3.40;99.90;;;;;;5038631;28;20198;-44
2022/01/05 08:40:05;;;;;;;5.53;1.30;;;3.40;99.90;;;;;;5050132;28;20197;-44
2022/01/05 08:42:32;;;;;;;5.93;2.10;;;3.40;99.90;;;;;;5053750;28;20222;-44
2022/01/05 08:44:59;;;;;;;11.87;2.87;;;3.40;99.90;;;;;;5036965;28;20238;-45
2022/01/05 08:47:26;;;;;;;12.33;2.40;;;3.40;99.90;;;;;;5045457;28;20209;-45
2022/01/05 08:49:52;;;;;;;3.23;1.50;;;3.40;99.90;;;;;;5043551;28;20202;-46
2022/01/05 08:52:19;;;;;;;3.53;2.00;;;3.40;99.90;;;;;;5038323;28;20596;-45
2022/01/05 08:54:48;;;;;;;9.17;2.63;;;3.40;99.90;;;;;;5047921;28;20299;-44
2022/01/05 08:57:14;;;;;;;10.30;2.27;;;3.40;99.90;;;;;;5051683;28;20743;-46
2022/01/05 08:59:43;;;;;;;9.67;2.37;;;3.40;99.90;;;;;;5048098;28;20950;-44
2022/01/05 09:02:13;;;;;;;10.03;2.90;;;3.40;99.90;;;;;;5048494;28;20214;-45
2022/01/05 09:04:40;;;;;;;16.03;3.90;;;3.50;99.90;;;;;;5055659;28;20810;-44
2022/01/05 09:07:07;;;;;;;6.97;2.13;;;3.50;99.90;;;;;;5047019;28;20720;-47
2022/01/05 09:09:33;;;;;;;10.73;2.87;;;3.50;99.90;;;;;;5035687;28;20207;-45
2022/01/05 09:12:02;;;;;;;8.33;2.70;;;3.50;99.90;;;;;;5053102;28;20203;-46
2022/01/05 09:14:28;;;;;;;9.13;3.90;;;3.50;99.90;;;;;;5044558;28;20219;-47
2022/01/05 09:16:56;;;;;;;6.40;3.07;;;3.50;99.90;;;;;;5046938;28;20231;-45
2022/01/05 09:19:22;;;;;;;4.73;2.30;;;3.50;99.90;;;;;;5054914;28;20210;-44
2022/01/05 09:21:49;;;;;;;7.73;3.07;;;3.50;99.90;;;;;;5044503;28;20285;-48
2022/01/05 09:24:17;;;;;;;15.80;5.77;;;3.50;99.90;;;;;;5040791;28;20596;-47
2022/01/05 09:26:44;;;;;;;15.00;5.30;;;3.50;99.90;;;;;;5044776;28;20191;-46
2022/01/05 09:29:12;;;;;;;14.33;4.60;;;3.50;99.90;;;;;;5048745;28;20199;-46
2022/01/05 09:31:39;;;;;;;10.40;4.20;;;3.50;99.90;;;;;;5044686;28;20805;-44
2022/01/05 09:34:06;;;;;;;11.13;3.87;;;3.50;99.90;;;;;;5050738;28;20222;-49
2022/01/05 09:36:59;;;;;;;5.87;2.30;;;3.50;99.90;;;;;;5052533;28;20215;-47
2022/01/05 09:42:11;;;;;;;22.00;4.60;;;3.50;99.90;;;;;;5051562;28;20206;-46
2022/01/05 09:44:43;;;;;;;5.90;2.70;;;3.60;99.90;;;;;;5053091;28;20206;-45
2022/01/05 09:47:32;;;;;;;7.40;2.83;;;3.60;99.90;;;;;;5051332;28;20194;-46
2022/01/05 09:50:01;;;;;;;9.13;1.80;;;3.70;99.90;;;;;;5049156;28;20198;-50
2022/01/05 09:52:28;;;;;;;12.07;3.83;;;3.70;99.90;;;;;;5056606;28;20865;-45
2022/01/05 09:54:55;;;;;;;10.47;3.40;;;3.70;99.90;;;;;;5034093;28;20746;-45
2022/01/05 09:57:21;;;;;;;11.60;3.40;;;3.80;99.90;;;;;;5054587;28;20202;-44
2022/01/05 09:59:52;;;;;;;9.50;2.63;;;3.90;99.90;;;;;;5048988;28;20355;-46
2022/01/05 10:02:19;;;;;;;13.57;3.10;;;3.80;99.90;;;;;;5048559;28;20858;-47
2022/01/05 10:04:47;;;;;;;14.20;3.60;;;3.90;99.90;;;;;;5053040;28;20694;-43
2022/01/05 10:07:14;;;;;;;13.23;3.47;;;3.90;99.90;;;;;;5047351;28;20192;-44
2022/01/05 10:09:43;;;;;;;11.27;2.80;;;4.00;99.90;;;;;;5035100;28;20195;-44
2022/01/05 10:12:12;;;;;;;6.27;2.90;;;4.00;99.90;;;;;;5054282;28;20194;-48
2022/01/05 10:14:40;;;;;;;8.87;2.80;;;4.00;99.90;;;;;;5051883;28;20583;-47
2022/01/05 10:17:10;;;;;;;12.40;3.67;;;4.00;99.90;;;;;;5048827;28;20612;-44
2022/01/05 10:19:38;;;;;;;16.77;4.10;;;4.00;99.90;;;;;;5048592;28;20205;-43
2022/01/05 10:22:26;;;;;;;14.00;2.57;;;4.00;99.90;;;;;;5053631;28;20640;-51
2022/01/05 10:24:56;;;;;;;14.43;3.17;;;4.00;99.90;;;;;;5034515;28;20297;-43
2022/01/05 10:27:25;;;;;;;13.77;3.37;;;4.00;99.90;;;;;;5050246;28;20948;-44
2022/01/05 10:29:57;;;;;;;11.93;3.50;;;4.10;99.90;;;;;;5056150;28;20206;-43
2022/01/05 10:32:27;;;;;;;22.70;4.63;;;4.00;99.90;;;;;;5040963;28;20255;-47
2022/01/05 10:35:07;;;;;;;6.27;2.33;;;4.10;99.90;;;;;;5049507;28;20673;-46
2022/01/05 10:37:35;;;;;;;22.17;3.47;;;4.10;99.90;;;;;;5054692;28;20195;-48
2022/01/05 10:40:12;;;;;;;8.67;2.57;;;4.10;99.90;;;;;;5047138;28;20261;-46
2022/01/05 10:42:40;;;;;;;7.53;2.30;;;4.10;99.90;;;;;;5048068;28;20544;-43
2022/01/05 10:45:09;;;;;;;15.70;4.33;;;4.10;99.90;;;;;;5052334;28;20554;-46
2022/01/05 10:47:37;;;;;;;4.90;1.90;;;4.20;99.90;;;;;;5051933;28;20270;-46
2022/01/05 10:50:11;;;;;;;9.60;4.57;;;4.20;99.90;;;;;;5048296;28;20215;-45
2022/01/05 10:52:38;;;;;;;10.90;3.23;;;4.20;99.90;;;;;;5049613;28;20272;-46
2022/01/05 10:55:11;;;;;;;9.63;3.07;;;4.30;99.90;;;;;;5046516;28;20290;-44
2022/01/05 10:57:38;;;;;;;9.60;2.27;;;4.30;99.90;;;;;;5038408;28;20286;-45
2022/01/05 11:00:07;;;;;;;6.57;2.37;;;4.30;99.90;;;;;;5058763;28;20191;-46
2022/01/05 11:02:35;;;;;;;4.50;2.40;;;4.40;99.90;;;;;;5046944;28;20293;-44
2022/01/05 11:05:16;;;;;;;9.27;3.40;;;4.40;99.90;;;;;;5048995;28;20203;-45
2022/01/05 11:07:47;;;;;;;6.20;2.97;;;4.40;99.90;;;;;;5044781;28;20198;-44
2022/01/05 11:10:16;;;;;;;9.47;3.40;;;4.40;99.90;;;;;;5050768;28;20734;-45
2022/01/05 11:12:44;;;;;;;12.40;4.60;;;4.50;99.90;;;;;;5037747;28;20359;-45
2022/01/05 11:15:27;;;;;;;5.90;3.67;;;4.50;99.90;;;;;;5057900;28;20211;-46
2022/01/05 11:18:15;;;;;;;6.07;4.30;;;4.50;99.90;;;;;;5053179;28;20202;-46
2022/01/05 11:20:47;;;;;;;7.97;4.30;;;4.60;99.90;;;;;;5049191;28;20191;-44
2022/01/05 11:23:16;;;;;;;3.53;2.70;;;4.60;99.90;;;;;;5033675;28;20215;-49
2022/01/05 11:25:44;;;;;;;9.90;4.63;;;4.60;99.90;;;;;;5049834;28;20202;-47
2022/01/05 11:28:12;;;;;;;18.03;6.60;;;4.50;99.90;;;;;;5036518;28;20203;-45
2022/01/05 11:30:39;;;;;;;4.20;3.67;;;4.50;99.90;;;;;;5051801;28;20195;-45
2022/01/05 11:33:07;;;;;;;8.00;3.77;;;4.40;99.90;;;;;;5051492;28;20215;-47
2022/01/05 11:35:34;;;;;;;4.70;3.13;;;4.30;99.90;;;;;;5040554;28;20201;-43
2022/01/05 11:38:04;;;;;;;5.43;3.93;;;4.20;99.90;;;;;;5044502;28;20195;-46
2022/01/05 11:40:33;;;;;;;14.67;4.50;;;4.10;99.90;;;;;;5050868;28;20274;-45
2022/01/05 11:43:01;;;;;;;4.87;3.80;;;4.10;99.90;;;;;;5037855;28;20219;-49
2022/01/05 11:45:32;;;;;;;14.13;4.87;;;4.00;99.90;;;;;;5049083;28;20206;-46
2022/01/05 11:48:17;;;;;;;3.70;3.40;;;4.00;99.90;;;;;;5049543;28;20678;-43
2022/01/05 11:50:47;;;;;;;15.83;7.57;;;4.00;99.90;;;;;;5047000;28;20668;-46
2022/01/05 11:53:17;;;;;;;6.57;3.17;;;4.00;99.90;;;;;;5045537;28;20230;-47
2022/01/05 11:56:07;;;;;;;4.07;3.37;;;4.00;99.90;;;;;;5051514;28;20221;-46
2022/01/05 11:58:35;;;;;;;4.63;2.90;;;4.00;99.90;;;;;;5037043;28;20214;-44
2022/01/05 12:01:33;;;;;;;7.07;2.53;;;4.00;99.90;;;;;;5049008;28;20203;-43
2022/01/05 12:04:14;;;;;;;3.43;1.77;;;4.10;99.90;;;;;;5048938;28;20215;-46
2022/01/05 12:07:09;;;;;;;2.07;1.70;;;4.10;99.90;;;;;;5040640;28;20195;-43
2022/01/05 12:09:41;;;;;;;1.80;1.27;;;4.00;99.90;;;;;;5036344;28;20304;-46
2022/01/05 12:12:32;;;;;;;3.63;1.60;;;4.10;99.90;;;;;;5051751;28;20199;-45
2022/01/05 12:15:00;;;;;;;1.70;1.43;;;4.10;99.90;;;;;;5042277;28;20225;-46
2022/01/05 12:17:28;;;;;;;3.13;0.93;;;4.10;99.90;;;;;;5043771;28;20206;-45
2022/01/05 12:20:18;;;;;;;0.90;0.63;;;4.10;99.90;;;;;;5059058;28;20274;-48
2022/01/05 12:22:45;;;;;;;1.40;0.73;;;4.00;99.90;;;;;;5047417;28;20218;-47
2022/01/05 12:25:17;;;;;;;1.10;0.70;;;4.00;99.90;;;;;;5043330;28;20198;-45
2022/01/05 12:27:59;;;;;;;2.30;1.00;;;4.00;99.90;;;;;;5041087;28;20206;-44
2022/01/05 12:30:46;;;;;;;1.50;0.70;;;3.90;99.90;;;;;;5032893;28;20203;-44
2022/01/05 12:33:20;;;;;;;1.80;0.37;;;3.90;99.90;;;;;;5048776;28;20726;-46
2022/01/05 12:35:59;;;;;;;3.80;0.70;;;3.90;99.90;;;;;;5049530;28;20213;-47
2022/01/05 12:38:38;;;;;;;1.50;0.50;;;3.80;99.90;;;;;;5040460;28;20256;-46
2022/01/05 12:41:30;;;;;;;0.80;0.73;;;3.80;99.90;;;;;;5055341;28;20553;-46
2022/01/05 12:43:59;;;;;;;0.83;0.83;;;3.80;99.90;;;;;;5046343;28;20239;-47
2022/01/05 12:46:35;;;;;;;1.77;0.60;;;3.70;99.90;;;;;;5039198;28;20203;-45
2022/01/05 12:49:05;;;;;;;0.40;0.40;;;3.80;99.90;;;;;;5047678;28;20202;-46
2022/01/05 12:51:41;;;;;;;0.47;0.47;;;3.70;99.90;;;;;;5046286;28;20195;-44
2022/01/05 12:54:11;;;;;;;1.63;0.63;;;3.70;99.90;;;;;;5039590;28;20249;-45
2022/01/05 12:56:42;;;;;;;3.63;1.00;;;3.70;99.90;;;;;;5049951;28;20186;-49
2022/01/05 12:59:11;;;;;;;2.23;0.50;;;3.70;99.90;;;;;;5048204;28;20199;-47
2022/01/05 13:01:41;;;;;;;1.00;0.90;;;3.70;99.90;;;;;;5038027;28;20944;-47
2022/01/05 13:04:10;;;;;;;3.40;1.20;;;3.80;99.90;;;;;;5054701;28;20289;-47
2022/01/05 13:06:37;;;;;;;3.43;0.83;;;3.80;99.90;;;;;;5043456;28;20244;-43